Concord, Michigan
Current Conditions -  °F | °C
As of 5:15 PM on Sunday 23 Nov 2014 (Local Time) from KJXN Reporting Station
Moderate Rain Moderate Rain  
Wind Chill: 10°   Ceiling: 2900
Heat Index: 10°   Visibility: 6mi
Dew Point:   Wind: 10mph
Humidity: 96%   Direction: 130°SE
Pressure: 29.6"   Gusts: NA
Location:  42.18°N, 84.64°W
Report Text: KJXN 232215Z 13009KT 6SM RA BR FEW009 BKN029 OVC037 10/09 A2960 RMK AO2 P0004 T01000094
Loading
Personal Weather Stations






























Interactive Weather Map New forecast layout! Learn more

10-Day Weather Forecast

Advertisements
Track Severe Weather on mobile